sensor_id;sensor_type;location;lat;lon;timestamp;temperature;humidity
78647;DHT22;67961;43.460;3.762;2023-11-19T00:00:27;10.50;75.60
78647;DHT22;67961;43.460;3.762;2023-11-19T00:02:53;10.50;75.60
78647;DHT22;67961;43.460;3.762;2023-11-19T00:05:19;10.50;75.70
78647;DHT22;67961;43.460;3.762;2023-11-19T00:07:44;10.50;75.70
78647;DHT22;67961;43.460;3.762;2023-11-19T00:10:11;10.50;75.80
78647;DHT22;67961;43.460;3.762;2023-11-19T00:12:38;10.50;75.80
78647;DHT22;67961;43.460;3.762;2023-11-19T00:15:05;10.50;75.90
78647;DHT22;67961;43.460;3.762;2023-11-19T00:17:32;10.50;75.70
78647;DHT22;67961;43.460;3.762;2023-11-19T00:19:57;10.40;75.40
78647;DHT22;67961;43.460;3.762;2023-11-19T00:22:23;10.40;75.40
78647;DHT22;67961;43.460;3.762;2023-11-19T00:24:49;10.40;75.40
78647;DHT22;67961;43.460;3.762;2023-11-19T00:27:15;10.30;75.50
78647;DHT22;67961;43.460;3.762;2023-11-19T00:29:43;10.30;75.60
78647;DHT22;67961;43.460;3.762;2023-11-19T00:32:11;10.30;75.70
78647;DHT22;67961;43.460;3.762;2023-11-19T00:34:37;10.30;75.90
78647;DHT22;67961;43.460;3.762;2023-11-19T00:37:03;10.30;75.70
78647;DHT22;67961;43.460;3.762;2023-11-19T00:39:29;10.30;75.30
78647;DHT22;67961;43.460;3.762;2023-11-19T00:41:55;10.20;75.10
78647;DHT22;67961;43.460;3.762;2023-11-19T00:44:20;10.20;75.30
78647;DHT22;67961;43.460;3.762;2023-11-19T00:46:47;10.10;75.40
78647;DHT22;67961;43.460;3.762;2023-11-19T00:49:12;10.10;75.20
78647;DHT22;67961;43.460;3.762;2023-11-19T00:51:38;10.10;75.30
78647;DHT22;67961;43.460;3.762;2023-11-19T00:54:04;10.10;75.30
78647;DHT22;67961;43.460;3.762;2023-11-19T00:56:30;10.10;75.60
78647;DHT22;67961;43.460;3.762;2023-11-19T00:58:55;10.10;75.80
78647;DHT22;67961;43.460;3.762;2023-11-19T01:01:21;10.10;75.90
78647;DHT22;67961;43.460;3.762;2023-11-19T01:03:47;10.10;76.00
78647;DHT22;67961;43.460;3.762;2023-11-19T01:06:13;10.10;76.10
78647;DHT22;67961;43.460;3.762;2023-11-19T01:08:39;10.00;76.20
78647;DHT22;67961;43.460;3.762;2023-11-19T01:11:05;10.10;76.20
78647;DHT22;67961;43.460;3.762;2023-11-19T01:13:30;10.10;76.30
78647;DHT22;67961;43.460;3.762;2023-11-19T01:15:56;10.10;76.40
78647;DHT22;67961;43.460;3.762;2023-11-19T01:18:22;10.10;76.50
78647;DHT22;67961;43.460;3.762;2023-11-19T01:20:47;10.20;76.60
78647;DHT22;67961;43.460;3.762;2023-11-19T01:23:13;10.20;76.70
78647;DHT22;67961;43.460;3.762;2023-11-19T01:25:39;10.20;76.80
78647;DHT22;67961;43.460;3.762;2023-11-19T01:28:04;10.20;77.00
78647;DHT22;67961;43.460;3.762;2023-11-19T01:30:30;10.30;77.20
78647;DHT22;67961;43.460;3.762;2023-11-19T01:32:56;10.30;77.30
78647;DHT22;67961;43.460;3.762;2023-11-19T01:35:21;10.40;77.40
78647;DHT22;67961;43.460;3.762;2023-11-19T01:37:48;10.40;77.40
78647;DHT22;67961;43.460;3.762;2023-11-19T01:40:20;10.40;77.40
78647;DHT22;67961;43.460;3.762;2023-11-19T01:42:46;10.40;77.20
78647;DHT22;67961;43.460;3.762;2023-11-19T01:45:21;10.40;77.00
78647;DHT22;67961;43.460;3.762;2023-11-19T01:47:47;10.40;76.70
78647;DHT22;67961;43.460;3.762;2023-11-19T01:50:13;10.40;76.30
78647;DHT22;67961;43.460;3.762;2023-11-19T01:52:39;10.40;76.10
78647;DHT22;67961;43.460;3.762;2023-11-19T01:55:06;10.40;75.90
78647;DHT22;67961;43.460;3.762;2023-11-19T01:57:33;10.40;75.60
78647;DHT22;67961;43.460;3.762;2023-11-19T02:00:01;10.40;75.50
78647;DHT22;67961;43.460;3.762;2023-11-19T02:02:28;10.30;75.50
78647;DHT22;67961;43.460;3.762;2023-11-19T02:04:55;10.30;75.50
78647;DHT22;67961;43.460;3.762;2023-11-19T02:07:21;10.30;75.40
78647;DHT22;67961;43.460;3.762;2023-11-19T02:09:47;10.30;75.50
78647;DHT22;67961;43.460;3.762;2023-11-19T02:12:13;10.30;75.50
78647;DHT22;67961;43.460;3.762;2023-11-19T02:14:39;10.20;75.50
78647;DHT22;67961;43.460;3.762;2023-11-19T02:17:05;10.20;75.20
78647;DHT22;67961;43.460;3.762;2023-11-19T02:19:30;10.20;75.20
78647;DHT22;67961;43.460;3.762;2023-11-19T02:21:56;10.10;75.40
78647;DHT22;67961;43.460;3.762;2023-11-19T02:24:22;10.10;75.50
78647;DHT22;67961;43.460;3.762;2023-11-19T02:29:22;10.10;75.70
78647;DHT22;67961;43.460;3.762;2023-11-19T02:31:48;10.10;75.80
78647;DHT22;67961;43.460;3.762;2023-11-19T02:34:14;10.10;75.80
78647;DHT22;67961;43.460;3.762;2023-11-19T02:36:39;10.10;75.90
78647;DHT22;67961;43.460;3.762;2023-11-19T02:39:07;10.10;75.90
78647;DHT22;67961;43.460;3.762;2023-11-19T02:41:36;10.10;75.90
78647;DHT22;67961;43.460;3.762;2023-11-19T02:44:02;10.10;75.90
78647;DHT22;67961;43.460;3.762;2023-11-19T02:46:28;10.20;75.90
78647;DHT22;67961;43.460;3.762;2023-11-19T02:48:54;10.20;75.90
78647;DHT22;67961;43.460;3.762;2023-11-19T02:51:19;10.20;76.00
78647;DHT22;67961;43.460;3.762;2023-11-19T02:53:45;10.20;76.00
78647;DHT22;67961;43.460;3.762;2023-11-19T02:56:13;10.20;75.90
78647;DHT22;67961;43.460;3.762;2023-11-19T02:58:52;10.20;76.00
78647;DHT22;67961;43.460;3.762;2023-11-19T03:01:24;10.20;76.00
78647;DHT22;67961;43.460;3.762;2023-11-19T03:03:56;10.20;76.00
78647;DHT22;67961;43.460;3.762;2023-11-19T03:06:23;10.30;76.00
78647;DHT22;67961;43.460;3.762;2023-11-19T03:08:48;10.30;76.00
78647;DHT22;67961;43.460;3.762;2023-11-19T03:11:15;10.30;76.00
78647;DHT22;67961;43.460;3.762;2023-11-19T03:13:41;10.20;76.00
78647;DHT22;67961;43.460;3.762;2023-11-19T03:16:07;10.20;75.90
78647;DHT22;67961;43.460;3.762;2023-11-19T03:18:33;10.20;75.80
78647;DHT22;67961;43.460;3.762;2023-11-19T03:20:58;10.20;75.80
78647;DHT22;67961;43.460;3.762;2023-11-19T03:23:25;10.20;75.80
78647;DHT22;67961;43.460;3.762;2023-11-19T03:25:53;10.20;75.80
78647;DHT22;67961;43.460;3.762;2023-11-19T03:28:19;10.10;75.80
78647;DHT22;67961;43.460;3.762;2023-11-19T03:30:44;10.10;75.80
78647;DHT22;67961;43.460;3.762;2023-11-19T03:33:10;10.00;75.60
78647;DHT22;67961;43.460;3.762;2023-11-19T03:35:35;10.00;75.40
78647;DHT22;67961;43.460;3.762;2023-11-19T03:38:01;10.00;75.20
78647;DHT22;67961;43.460;3.762;2023-11-19T03:40:28;10.00;75.20
78647;DHT22;67961;43.460;3.762;2023-11-19T03:42:56;9.90;75.10
78647;DHT22;67961;43.460;3.762;2023-11-19T03:45:25;9.90;75.20
78647;DHT22;67961;43.460;3.762;2023-11-19T03:47:51;9.80;75.30
78647;DHT22;67961;43.460;3.762;2023-11-19T03:50:17;9.80;75.40
78647;DHT22;67961;43.460;3.762;2023-11-19T03:52:43;9.80;75.40
78647;DHT22;67961;43.460;3.762;2023-11-19T03:55:09;9.80;75.20
78647;DHT22;67961;43.460;3.762;2023-11-19T03:57:35;9.70;75.20
78647;DHT22;67961;43.460;3.762;2023-11-19T04:00:01;9.70;75.10
78647;DHT22;67961;43.460;3.762;2023-11-19T04:02:33;9.70;75.00
78647;DHT22;67961;43.460;3.762;2023-11-19T04:04:59;9.60;75.10
78647;DHT22;67961;43.460;3.762;2023-11-19T04:07:25;9.60;75.00
78647;DHT22;67961;43.460;3.762;2023-11-19T04:09:50;9.60;75.10
78647;DHT22;67961;43.460;3.762;2023-11-19T04:12:16;9.60;75.30
78647;DHT22;67961;43.460;3.762;2023-11-19T04:14:42;9.60;75.50
78647;DHT22;67961;43.460;3.762;2023-11-19T04:17:07;9.60;75.50
78647;DHT22;67961;43.460;3.762;2023-11-19T04:19:33;9.60;75.50
78647;DHT22;67961;43.460;3.762;2023-11-19T04:21:59;9.60;75.50
78647;DHT22;67961;43.460;3.762;2023-11-19T04:24:24;9.60;75.60
78647;DHT22;67961;43.460;3.762;2023-11-19T04:26:50;9.60;75.40
78647;DHT22;67961;43.460;3.762;2023-11-19T04:29:16;9.60;75.00
78647;DHT22;67961;43.460;3.762;2023-11-19T04:31:45;9.50;74.60
78647;DHT22;67961;43.460;3.762;2023-11-19T04:34:11;9.50;74.60
78647;DHT22;67961;43.460;3.762;2023-11-19T04:36:37;9.40;74.80
78647;DHT22;67961;43.460;3.762;2023-11-19T04:39:04;9.40;75.00
78647;DHT22;67961;43.460;3.762;2023-11-19T04:41:35;9.40;75.00
78647;DHT22;67961;43.460;3.762;2023-11-19T04:44:01;9.40;74.70
78647;DHT22;67961;43.460;3.762;2023-11-19T04:46:27;9.40;74.50
78647;DHT22;67961;43.460;3.762;2023-11-19T04:48:53;9.30;74.60
78647;DHT22;67961;43.460;3.762;2023-11-19T04:51:18;9.30;74.80
78647;DHT22;67961;43.460;3.762;2023-11-19T04:53:44;9.20;75.10
78647;DHT22;67961;43.460;3.762;2023-11-19T04:56:11;9.20;75.30
78647;DHT22;67961;43.460;3.762;2023-11-19T04:58:37;9.20;75.40
78647;DHT22;67961;43.460;3.762;2023-11-19T05:01:03;9.20;75.50
78647;DHT22;67961;43.460;3.762;2023-11-19T05:03:30;9.30;75.60
78647;DHT22;67961;43.460;3.762;2023-11-19T05:05:57;9.30;75.70
78647;DHT22;67961;43.460;3.762;2023-11-19T05:08:22;9.40;75.90
78647;DHT22;67961;43.460;3.762;2023-11-19T05:10:48;9.30;76.00
78647;DHT22;67961;43.460;3.762;2023-11-19T05:13:14;9.30;76.00
78647;DHT22;67961;43.460;3.762;2023-11-19T05:15:40;9.30;75.90
78647;DHT22;67961;43.460;3.762;2023-11-19T05:18:06;9.30;75.90
78647;DHT22;67961;43.460;3.762;2023-11-19T05:20:32;9.30;75.90
78647;DHT22;67961;43.460;3.762;2023-11-19T05:22:58;9.30;75.90
78647;DHT22;67961;43.460;3.762;2023-11-19T05:25:26;9.30;75.90
78647;DHT22;67961;43.460;3.762;2023-11-19T05:27:52;9.30;76.10
78647;DHT22;67961;43.460;3.762;2023-11-19T05:30:18;9.30;76.10
78647;DHT22;67961;43.460;3.762;2023-11-19T05:32:44;9.30;76.10
78647;DHT22;67961;43.460;3.762;2023-11-19T05:35:11;9.30;76.10
78647;DHT22;67961;43.460;3.762;2023-11-19T05:37:36;9.20;76.10
78647;DHT22;67961;43.460;3.762;2023-11-19T05:40:03;9.20;76.10
78647;DHT22;67961;43.460;3.762;2023-11-19T05:42:31;9.20;76.10
78647;DHT22;67961;43.460;3.762;2023-11-19T05:44:57;9.20;75.80
78647;DHT22;67961;43.460;3.762;2023-11-19T05:47:23;9.20;75.70
78647;DHT22;67961;43.460;3.762;2023-11-19T05:49:48;9.20;75.60
78647;DHT22;67961;43.460;3.762;2023-11-19T05:52:14;9.20;75.60
78647;DHT22;67961;43.460;3.762;2023-11-19T05:54:40;9.20;75.80
78647;DHT22;67961;43.460;3.762;2023-11-19T05:57:07;9.20;75.90
78647;DHT22;67961;43.460;3.762;2023-11-19T05:59:36;9.10;75.90
78647;DHT22;67961;43.460;3.762;2023-11-19T06:02:02;9.10;76.00
78647;DHT22;67961;43.460;3.762;2023-11-19T06:04:28;9.10;76.00
78647;DHT22;67961;43.460;3.762;2023-11-19T06:06:54;9.10;76.00
78647;DHT22;67961;43.460;3.762;2023-11-19T06:09:21;9.10;76.00
78647;DHT22;67961;43.460;3.762;2023-11-19T06:11:48;9.10;76.00
78647;DHT22;67961;43.460;3.762;2023-11-19T06:14:14;9.00;75.80
78647;DHT22;67961;43.460;3.762;2023-11-19T06:16:40;9.00;75.80
78647;DHT22;67961;43.460;3.762;2023-11-19T06:19:06;9.00;75.80
78647;DHT22;67961;43.460;3.762;2023-11-19T06:21:31;9.00;75.80
78647;DHT22;67961;43.460;3.762;2023-11-19T06:23:57;9.00;75.70
78647;DHT22;67961;43.460;3.762;2023-11-19T06:26:24;9.00;75.70
78647;DHT22;67961;43.460;3.762;2023-11-19T06:28:50;9.00;75.70
78647;DHT22;67961;43.460;3.762;2023-11-19T06:31:16;9.00;75.70
78647;DHT22;67961;43.460;3.762;2023-11-19T06:33:42;9.00;75.70
78647;DHT22;67961;43.460;3.762;2023-11-19T06:36:08;9.00;75.70
78647;DHT22;67961;43.460;3.762;2023-11-19T06:38:34;9.00;75.70
78647;DHT22;67961;43.460;3.762;2023-11-19T06:41:00;9.00;75.80
78647;DHT22;67961;43.460;3.762;2023-11-19T06:43:27;9.00;75.80
78647;DHT22;67961;43.460;3.762;2023-11-19T06:45:54;9.00;75.50
78647;DHT22;67961;43.460;3.762;2023-11-19T06:48:19;9.00;75.20
78647;DHT22;67961;43.460;3.762;2023-11-19T06:50:45;8.90;75.10
78647;DHT22;67961;43.460;3.762;2023-11-19T06:53:11;8.90;75.10
78647;DHT22;67961;43.460;3.762;2023-11-19T06:55:37;8.90;75.30
78647;DHT22;67961;43.460;3.762;2023-11-19T06:58:02;8.90;75.50
78647;DHT22;67961;43.460;3.762;2023-11-19T07:00:29;8.90;75.70
78647;DHT22;67961;43.460;3.762;2023-11-19T07:02:55;8.90;75.90
78647;DHT22;67961;43.460;3.762;2023-11-19T07:05:21;8.90;76.00
78647;DHT22;67961;43.460;3.762;2023-11-19T07:07:46;8.90;76.20
78647;DHT22;67961;43.460;3.762;2023-11-19T07:10:12;9.00;76.40
78647;DHT22;67961;43.460;3.762;2023-11-19T07:12:38;9.00;76.60
78647;DHT22;67961;43.460;3.762;2023-11-19T07:15:04;9.00;76.80
78647;DHT22;67961;43.460;3.762;2023-11-19T07:17:34;9.00;77.00
78647;DHT22;67961;43.460;3.762;2023-11-19T07:20:00;9.10;76.90
78647;DHT22;67961;43.460;3.762;2023-11-19T07:22:26;9.20;76.80
78647;DHT22;67961;43.460;3.762;2023-11-19T07:24:52;9.20;76.80
78647;DHT22;67961;43.460;3.762;2023-11-19T07:27:19;9.20;76.80
78647;DHT22;67961;43.460;3.762;2023-11-19T07:29:44;9.20;76.90
78647;DHT22;67961;43.460;3.762;2023-11-19T07:32:10;9.30;76.90
78647;DHT22;67961;43.460;3.762;2023-11-19T07:34:36;9.40;77.00
78647;DHT22;67961;43.460;3.762;2023-11-19T07:37:02;9.40;77.00
78647;DHT22;67961;43.460;3.762;2023-11-19T07:39:28;9.50;77.20
78647;DHT22;67961;43.460;3.762;2023-11-19T07:41:54;9.50;77.20
78647;DHT22;67961;43.460;3.762;2023-11-19T07:44:20;9.60;77.30
78647;DHT22;67961;43.460;3.762;2023-11-19T07:46:47;9.70;77.60
78647;DHT22;67961;43.460;3.762;2023-11-19T07:49:13;9.80;77.90
78647;DHT22;67961;43.460;3.762;2023-11-19T07:51:39;10.00;78.10
78647;DHT22;67961;43.460;3.762;2023-11-19T07:54:05;10.00;78.30
78647;DHT22;67961;43.460;3.762;2023-11-19T07:56:33;10.10;78.50
78647;DHT22;67961;43.460;3.762;2023-11-19T07:58:59;10.20;78.70
78647;DHT22;67961;43.460;3.762;2023-11-19T08:01:25;10.30;78.70
78647;DHT22;67961;43.460;3.762;2023-11-19T08:03:51;10.30;78.60
78647;DHT22;67961;43.460;3.762;2023-11-19T08:06:16;-50.00;75.00
78647;DHT22;67961;43.460;3.762;2023-11-19T08:13:34;24.00;50.00
78647;DHT22;67961;43.460;3.762;2023-11-19T08:16:00;10.70;76.90
78647;DHT22;67961;43.460;3.762;2023-11-19T08:18:25;10.80;76.60
78647;DHT22;67961;43.460;3.762;2023-11-19T08:20:51;10.80;76.50
78647;DHT22;67961;43.460;3.762;2023-11-19T08:23:18;10.80;76.60
78647;DHT22;67961;43.460;3.762;2023-11-19T08:25:44;24.00;50.00
78647;DHT22;67961;43.460;3.762;2023-11-19T08:28:10;24.00;50.00
78647;DHT22;67961;43.460;3.762;2023-11-19T08:30:35;11.00;76.50
78647;DHT22;67961;43.460;3.762;2023-11-19T08:33:01;9.50;76.40
78647;DHT22;67961;43.460;3.762;2023-11-19T08:47:40;24.00;50.00
78647;DHT22;67961;43.460;3.762;2023-11-19T08:52:33;24.00;50.00
78647;DHT22;67961;43.460;3.762;2023-11-19T12:43:30;18.30;62.70
78647;DHT22;67961;43.460;3.762;2023-11-19T12:45:56;18.30;62.50
78647;DHT22;67961;43.460;3.762;2023-11-19T12:48:22;18.00;61.80
78647;DHT22;67961;43.460;3.762;2023-11-19T12:50:55;12.60;61.70
78647;DHT22;67961;43.460;3.762;2023-11-19T12:58:34;-4.90;59.50
78647;DHT22;67961;43.460;3.762;2023-11-19T13:01:04;19.00;60.80
78647;DHT22;67961;43.460;3.762;2023-11-19T13:03:37;19.10;60.10
78647;DHT22;67961;43.460;3.762;2023-11-19T13:06:08;19.10;59.90
78647;DHT22;67961;43.460;3.762;2023-11-19T13:08:47;19.20;59.20
78647;DHT22;67961;43.460;3.762;2023-11-19T13:11:36;19.30;59.10
78647;DHT22;67961;43.460;3.762;2023-11-19T13:14:05;19.50;58.30
78647;DHT22;67961;43.460;3.762;2023-11-19T13:16:36;19.50;58.70
78647;DHT22;67961;43.460;3.762;2023-11-19T13:19:02;19.50;58.60
78647;DHT22;67961;43.460;3.762;2023-11-19T13:21:29;19.50;58.30
78647;DHT22;67961;43.460;3.762;2023-11-19T13:23:57;19.50;58.20
78647;DHT22;67961;43.460;3.762;2023-11-19T13:26:23;19.50;58.20
78647;DHT22;67961;43.460;3.762;2023-11-19T13:28:49;19.50;58.00
78647;DHT22;67961;43.460;3.762;2023-11-19T13:31:14;19.60;58.10
78647;DHT22;67961;43.460;3.762;2023-11-19T13:33:41;19.50;58.10
78647;DHT22;67961;43.460;3.762;2023-11-19T13:36:06;19.50;57.90
78647;DHT22;67961;43.460;3.762;2023-11-19T13:38:36;19.50;58.00
78647;DHT22;67961;43.460;3.762;2023-11-19T13:41:02;19.50;57.90
78647;DHT22;67961;43.460;3.762;2023-11-19T13:43:28;19.50;57.80
78647;DHT22;67961;43.460;3.762;2023-11-19T13:45:54;19.50;57.90
78647;DHT22;67961;43.460;3.762;2023-11-19T13:48:20;19.50;57.40
78647;DHT22;67961;43.460;3.762;2023-11-19T13:50:46;19.50;57.30
78647;DHT22;67961;43.460;3.762;2023-11-19T13:53:11;19.50;57.30
78647;DHT22;67961;43.460;3.762;2023-11-19T13:55:38;19.50;57.40
78647;DHT22;67961;43.460;3.762;2023-11-19T13:58:04;19.50;57.10
78647;DHT22;67961;43.460;3.762;2023-11-19T14:00:29;19.50;57.40
78647;DHT22;67961;43.460;3.762;2023-11-19T14:02:55;19.50;56.90
78647;DHT22;67961;43.460;3.762;2023-11-19T14:05:21;19.50;56.90
78647;DHT22;67961;43.460;3.762;2023-11-19T14:07:46;19.60;57.40
78647;DHT22;67961;43.460;3.762;2023-11-19T14:10:17;19.60;57.20
78647;DHT22;67961;43.460;3.762;2023-11-19T14:12:42;19.50;57.10
78647;DHT22;67961;43.460;3.762;2023-11-19T14:15:09;19.50;57.20
78647;DHT22;67961;43.460;3.762;2023-11-19T14:17:36;19.60;56.90
78647;DHT22;67961;43.460;3.762;2023-11-19T14:20:05;19.60;56.80
78647;DHT22;67961;43.460;3.762;2023-11-19T14:22:44;19.60;56.80
78647;DHT22;67961;43.460;3.762;2023-11-19T14:25:11;19.70;56.70
78647;DHT22;67961;43.460;3.762;2023-11-19T14:27:41;19.60;56.80
78647;DHT22;67961;43.460;3.762;2023-11-19T14:30:08;19.70;56.50
78647;DHT22;67961;43.460;3.762;2023-11-19T14:32:38;19.60;56.60
78647;DHT22;67961;43.460;3.762;2023-11-19T14:35:05;19.60;56.60
78647;DHT22;67961;43.460;3.762;2023-11-19T14:37:31;19.60;56.60
78647;DHT22;67961;43.460;3.762;2023-11-19T14:39:57;19.60;56.70
78647;DHT22;67961;43.460;3.762;2023-11-19T14:42:26;19.70;56.80
78647;DHT22;67961;43.460;3.762;2023-11-19T14:44:53;19.70;56.60
78647;DHT22;67961;43.460;3.762;2023-11-19T14:47:19;19.70;56.40
78647;DHT22;67961;43.460;3.762;2023-11-19T14:49:45;19.60;56.80
78647;DHT22;67961;43.460;3.762;2023-11-19T14:52:11;19.60;56.50
78647;DHT22;67961;43.460;3.762;2023-11-19T14:54:37;19.60;56.50
78647;DHT22;67961;43.460;3.762;2023-11-19T14:57:07;19.60;56.60
78647;DHT22;67961;43.460;3.762;2023-11-19T14:59:36;19.70;56.90
78647;DHT22;67961;43.460;3.762;2023-11-19T15:02:01;19.60;56.50
78647;DHT22;67961;43.460;3.762;2023-11-19T15:04:28;19.60;56.50
78647;DHT22;67961;43.460;3.762;2023-11-19T18:07:46;17.60;63.20
78647;DHT22;67961;43.460;3.762;2023-11-19T18:10:12;18.60;70.40
78647;DHT22;67961;43.460;3.762;2023-11-19T18:12:38;18.20;62.30
78647;DHT22;67961;43.460;3.762;2023-11-19T18:15:08;18.00;61.20
78647;DHT22;67961;43.460;3.762;2023-11-19T18:17:34;17.80;61.50
78647;DHT22;67961;43.460;3.762;2023-11-19T18:20:03;17.80;61.40
78647;DHT22;67961;43.460;3.762;2023-11-19T18:22:29;17.70;61.70
78647;DHT22;67961;43.460;3.762;2023-11-19T18:24:56;17.60;62.00
78647;DHT22;67961;43.460;3.762;2023-11-19T18:27:21;17.60;61.80
78647;DHT22;67961;43.460;3.762;2023-11-19T18:29:47;17.60;62.00
78647;DHT22;67961;43.460;3.762;2023-11-19T18:32:13;17.60;62.00
78647;DHT22;67961;43.460;3.762;2023-11-19T18:34:39;17.60;62.10
78647;DHT22;67961;43.460;3.762;2023-11-19T18:37:08;17.50;61.90
78647;DHT22;67961;43.460;3.762;2023-11-19T18:39:34;17.60;62.30
78647;DHT22;67961;43.460;3.762;2023-11-19T18:42:00;17.50;62.40
78647;DHT22;67961;43.460;3.762;2023-11-19T18:44:26;17.50;62.20
78647;DHT22;67961;43.460;3.762;2023-11-19T18:46:51;17.50;62.20
78647;DHT22;67961;43.460;3.762;2023-11-19T18:49:17;17.50;62.20
78647;DHT22;67961;43.460;3.762;2023-11-19T18:51:43;17.50;62.30
78647;DHT22;67961;43.460;3.762;2023-11-19T18:54:08;17.50;62.40
78647;DHT22;67961;43.460;3.762;2023-11-19T18:56:34;17.50;62.80
78647;DHT22;67961;43.460;3.762;2023-11-19T18:59:00;17.50;62.60
78647;DHT22;67961;43.460;3.762;2023-11-19T19:01:26;17.50;62.80
78647;DHT22;67961;43.460;3.762;2023-11-19T19:03:55;17.50;63.00
78647;DHT22;67961;43.460;3.762;2023-11-19T19:06:21;17.50;62.70
78647;DHT22;67961;43.460;3.762;2023-11-19T19:08:47;17.50;62.80
78647;DHT22;67961;43.460;3.762;2023-11-19T19:11:15;17.40;62.80
78647;DHT22;67961;43.460;3.762;2023-11-19T19:13:44;17.40;63.00
78647;DHT22;67961;43.460;3.762;2023-11-19T19:16:10;17.40;63.50
78647;DHT22;67961;43.460;3.762;2023-11-19T19:18:37;17.40;63.30
78647;DHT22;67961;43.460;3.762;2023-11-19T19:21:03;17.30;63.40
78647;DHT22;67961;43.460;3.762;2023-11-19T19:23:29;17.30;63.60
78647;DHT22;67961;43.460;3.762;2023-11-19T19:25:55;17.20;64.00
78647;DHT22;67961;43.460;3.762;2023-11-19T19:28:21;17.20;63.90
78647;DHT22;67961;43.460;3.762;2023-11-19T19:30:46;17.20;63.70
78647;DHT22;67961;43.460;3.762;2023-11-19T19:33:13;17.20;64.00
78647;DHT22;67961;43.460;3.762;2023-11-19T19:35:39;17.20;64.10
78647;DHT22;67961;43.460;3.762;2023-11-19T19:38:04;17.20;64.00
78647;DHT22;67961;43.460;3.762;2023-11-19T19:40:30;17.20;64.10
78647;DHT22;67961;43.460;3.762;2023-11-19T19:42:56;17.20;64.50
78647;DHT22;67961;43.460;3.762;2023-11-19T19:45:24;17.20;64.60
78647;DHT22;67961;43.460;3.762;2023-11-19T19:47:49;17.20;64.60
78647;DHT22;67961;43.460;3.762;2023-11-19T19:50:16;17.20;64.60
78647;DHT22;67961;43.460;3.762;2023-11-19T19:52:42;17.20;64.60
78647;DHT22;67961;43.460;3.762;2023-11-19T19:55:08;17.20;64.80
78647;DHT22;67961;43.460;3.762;2023-11-19T19:57:34;17.10;65.20
78647;DHT22;67961;43.460;3.762;2023-11-19T20:00:01;17.10;65.30
78647;DHT22;67961;43.460;3.762;2023-11-19T20:02:27;17.00;65.10
78647;DHT22;67961;43.460;3.762;2023-11-19T20:04:54;17.00;65.40
78647;DHT22;67961;43.460;3.762;2023-11-19T20:07:20;17.00;65.70
78647;DHT22;67961;43.460;3.762;2023-11-19T20:09:46;17.00;65.70
78647;DHT22;67961;43.460;3.762;2023-11-19T20:12:11;17.00;65.60
78647;DHT22;67961;43.460;3.762;2023-11-19T20:14:37;17.00;66.00
78647;DHT22;67961;43.460;3.762;2023-11-19T20:17:04;17.00;65.80
78647;DHT22;67961;43.460;3.762;2023-11-19T20:19:30;17.00;65.90
78647;DHT22;67961;43.460;3.762;2023-11-19T20:21:55;16.90;66.40
78647;DHT22;67961;43.460;3.762;2023-11-19T20:24:21;16.90;66.60
78647;DHT22;67961;43.460;3.762;2023-11-19T20:26:47;16.90;66.10
78647;DHT22;67961;43.460;3.762;2023-11-19T20:29:18;16.90;66.50
78647;DHT22;67961;43.460;3.762;2023-11-19T20:31:44;16.90;66.20
78647;DHT22;67961;43.460;3.762;2023-11-19T20:34:10;16.80;66.50
78647;DHT22;67961;43.460;3.762;2023-11-19T20:36:36;16.80;66.40
78647;DHT22;67961;43.460;3.762;2023-11-19T20:39:01;16.80;66.50
78647;DHT22;67961;43.460;3.762;2023-11-19T20:41:27;16.80;66.60
78647;DHT22;67961;43.460;3.762;2023-11-19T20:43:53;16.80;66.40
78647;DHT22;67961;43.460;3.762;2023-11-19T20:46:19;16.80;66.60
78647;DHT22;67961;43.460;3.762;2023-11-19T20:48:45;16.80;66.60
78647;DHT22;67961;43.460;3.762;2023-11-19T20:51:11;16.70;66.90
78647;DHT22;67961;43.460;3.762;2023-11-19T20:53:38;16.70;66.80
78647;DHT22;67961;43.460;3.762;2023-11-19T20:56:04;16.70;66.70
78647;DHT22;67961;43.460;3.762;2023-11-19T20:58:30;16.70;67.00
78647;DHT22;67961;43.460;3.762;2023-11-19T21:00:58;16.70;66.90
78647;DHT22;67961;43.460;3.762;2023-11-19T21:03:23;16.70;66.80
78647;DHT22;67961;43.460;3.762;2023-11-19T21:05:49;16.70;66.90
78647;DHT22;67961;43.460;3.762;2023-11-19T21:08:21;16.70;66.70
78647;DHT22;67961;43.460;3.762;2023-11-19T21:10:46;16.70;66.90
78647;DHT22;67961;43.460;3.762;2023-11-19T21:13:17;16.70;67.00
78647;DHT22;67961;43.460;3.762;2023-11-19T21:15:44;16.70;66.80
78647;DHT22;67961;43.460;3.762;2023-11-19T21:18:13;16.70;66.70
78647;DHT22;67961;43.460;3.762;2023-11-19T21:20:38;16.70;66.80
78647;DHT22;67961;43.460;3.762;2023-11-19T21:23:05;16.80;66.80
78647;DHT22;67961;43.460;3.762;2023-11-19T21:25:30;16.80;66.80
78647;DHT22;67961;43.460;3.762;2023-11-19T21:27:58;16.80;66.80
78647;DHT22;67961;43.460;3.762;2023-11-19T21:30:24;16.80;66.60
78647;DHT22;67961;43.460;3.762;2023-11-19T21:32:50;16.80;66.60
78647;DHT22;67961;43.460;3.762;2023-11-19T21:35:16;16.80;66.70
78647;DHT22;67961;43.460;3.762;2023-11-19T21:37:45;16.80;66.70
78647;DHT22;67961;43.460;3.762;2023-11-19T21:40:11;16.80;66.70
78647;DHT22;67961;43.460;3.762;2023-11-19T21:42:37;16.80;66.90
78647;DHT22;67961;43.460;3.762;2023-11-19T21:45:03;16.80;66.80
78647;DHT22;67961;43.460;3.762;2023-11-19T21:47:29;16.80;66.70
78647;DHT22;67961;43.460;3.762;2023-11-19T21:49:55;16.80;66.70
78647;DHT22;67961;43.460;3.762;2023-11-19T21:52:21;16.80;66.70
78647;DHT22;67961;43.460;3.762;2023-11-19T21:54:47;16.80;66.70
78647;DHT22;67961;43.460;3.762;2023-11-19T21:57:14;16.80;66.70
78647;DHT22;67961;43.460;3.762;2023-11-19T21:59:40;16.80;66.60
78647;DHT22;67961;43.460;3.762;2023-11-19T22:02:06;16.80;66.70
78647;DHT22;67961;43.460;3.762;2023-11-19T22:04:35;16.80;67.00
78647;DHT22;67961;43.460;3.762;2023-11-19T22:07:01;16.70;66.60
78647;DHT22;67961;43.460;3.762;2023-11-19T22:09:27;16.70;66.60
78647;DHT22;67961;43.460;3.762;2023-11-19T22:11:52;16.70;66.80
78647;DHT22;67961;43.460;3.762;2023-11-19T22:14:18;16.70;66.60
78647;DHT22;67961;43.460;3.762;2023-11-19T22:16:44;16.70;66.90
78647;DHT22;67961;43.460;3.762;2023-11-19T22:19:11;16.70;66.70
78647;DHT22;67961;43.460;3.762;2023-11-19T22:21:36;16.70;67.10
78647;DHT22;67961;43.460;3.762;2023-11-19T22:24:02;16.70;66.80
78647;DHT22;67961;43.460;3.762;2023-11-19T22:26:28;16.70;66.80
78647;DHT22;67961;43.460;3.762;2023-11-19T22:28:53;16.70;67.00
78647;DHT22;67961;43.460;3.762;2023-11-19T22:31:19;16.70;67.00
78647;DHT22;67961;43.460;3.762;2023-11-19T22:33:45;16.70;67.20
78647;DHT22;67961;43.460;3.762;2023-11-19T22:36:10;16.70;67.20
78647;DHT22;67961;43.460;3.762;2023-11-19T22:38:36;16.70;67.20
78647;DHT22;67961;43.460;3.762;2023-11-19T22:41:02;16.70;66.90
78647;DHT22;67961;43.460;3.762;2023-11-19T22:43:27;16.70;67.10
78647;DHT22;67961;43.460;3.762;2023-11-19T22:45:53;16.70;66.90